createdAt,value
2023-11-01T00:11:58.309Z,81.71
2023-11-01T00:27:02.093Z,81.61
2023-11-01T00:42:06.096Z,82.19
2023-11-01T00:57:09.844Z,83.85
2023-11-01T01:12:12.960Z,85.09
2023-11-01T01:27:16.189Z,85.08
2023-11-01T01:42:19.659Z,86.00
2023-11-01T01:57:24.492Z,85.27
2023-11-01T02:12:27.579Z,85.86
2023-11-01T02:27:30.994Z,86.93
2023-11-01T02:42:34.488Z,86.55
2023-11-01T02:57:37.923Z,88.24
2023-11-01T03:12:41.791Z,88.60
2023-11-01T03:27:45.364Z,88.30
2023-11-01T03:42:50.498Z,88.91
2023-11-01T03:57:53.849Z,89.12
2023-11-01T04:12:57.262Z,88.91
2023-11-01T04:28:01.366Z,88.70
2023-11-01T04:43:04.779Z,88.73
2023-11-01T04:58:08.059Z,89.11
2023-11-01T05:13:13.715Z,89.06
2023-11-01T05:43:40.944Z,87.32
2023-11-01T05:58:46.113Z,87.73
2023-11-01T06:13:52.341Z,87.37
2023-11-01T06:29:04.223Z,87.14
2023-11-01T06:44:09.734Z,85.77
2023-11-01T06:59:13.368Z,86.10
2023-11-01T07:14:17.196Z,84.43
2023-11-01T07:29:21.340Z,83.22
2023-11-01T07:44:24.781Z,82.35
2023-11-01T07:59:27.875Z,80.53
2023-11-01T08:14:31.065Z,79.41
2023-11-01T08:29:34.584Z,78.54
2023-11-01T08:44:37.753Z,76.24
2023-11-01T08:59:40.954Z,77.20
2023-11-01T09:14:44.468Z,76.45
2023-11-01T09:29:47.590Z,75.32
2023-11-01T09:44:55.212Z,74.25
2023-11-01T09:59:58.519Z,72.29
2023-11-01T10:15:03.024Z,72.09
2023-11-01T10:30:08.441Z,72.20
2023-11-01T10:45:11.974Z,71.44
2023-11-01T11:00:20.867Z,70.38
2023-11-01T11:15:55.720Z,68.02
2023-11-01T11:31:00.265Z,68.38
2023-11-01T11:46:29.037Z,68.25
2023-11-01T12:01:32.753Z,64.91
2023-11-01T12:16:38.736Z,63.56
2023-11-01T12:31:46.094Z,64.43
2023-11-01T12:46:49.410Z,62.78
2023-11-01T13:01:52.920Z,63.59
2023-11-01T13:16:57.098Z,63.47
2023-11-01T13:32:02.268Z,63.27
2023-11-01T13:47:05.614Z,62.17
2023-11-01T14:02:09.039Z,61.99
2023-11-01T14:17:12.460Z,63.36
2023-11-01T14:32:15.629Z,61.90
2023-11-01T14:47:19.043Z,62.01
2023-11-01T15:02:22.249Z,61.86
2023-11-01T15:17:25.576Z,62.23
2023-11-01T15:32:30.781Z,61.53
2023-11-01T15:47:42.040Z,63.21
2023-11-01T16:02:45.369Z,63.76
2023-11-01T16:17:49.255Z,64.24
2023-11-01T16:32:57.204Z,64.03
2023-11-01T16:48:03.921Z,64.83
2023-11-01T17:03:07.794Z,65.79
2023-11-01T17:18:11.984Z,66.56
2023-11-01T17:33:15.425Z,66.70
2023-11-01T17:48:18.846Z,66.98
2023-11-01T18:03:22.429Z,67.77
2023-11-01T18:18:41.813Z,71.13
2023-11-01T18:33:57.085Z,69.85
2023-11-01T18:49:01.236Z,68.81
2023-11-01T19:04:07.551Z,68.85
2023-11-01T19:19:10.811Z,68.88
2023-11-01T19:34:14.258Z,69.96
2023-11-01T19:49:19.070Z,70.57
2023-11-01T20:04:22.397Z,71.44
2023-11-01T20:19:28.705Z,71.92
2023-11-01T20:34:31.919Z,72.65
2023-11-01T20:49:36.422Z,72.67
2023-11-01T21:04:41.526Z,73.51
2023-11-01T21:19:48.179Z,74.30
2023-11-01T21:34:51.393Z,76.03
2023-11-01T21:49:55.046Z,78.10
2023-11-01T22:04:58.420Z,78.73
2023-11-01T22:20:01.629Z,78.72
2023-11-01T22:35:08.378Z,78.81
2023-11-01T22:50:11.998Z,78.63
2023-11-01T23:05:15.406Z,78.10
2023-11-01T23:20:25.313Z,78.17
2023-11-01T23:35:30.408Z,79.12
2023-11-01T23:50:34.924Z,78.08
